Time;durP1;ratioP1;P1;durP2;ratioP2;P2;SDS_P1;SDS_P2;PMS_P1;PMS_P2;Temp;Humidity;BMP_temperature;BMP_pressure;BME280_temperature;BME280_humidity;BME280_pressure;Samples;Min_cycle;Max_cycle;Signal;HPM_P1;HPM_P2
2023/01/18 00:01:31;;;;;;;9.13;6.63;;;1.20;99.90;;;-141.84;69.29;19035.53;5012170;28;20230;-73
2023/01/18 00:03:59;;;;;;;8.70;6.67;;;1.20;99.90;;;-141.84;68.91;19033.50;5012203;28;20718;-76
2023/01/18 00:06:28;;;;;;;9.73;6.60;;;1.10;99.90;;;-141.84;69.38;19021.31;5025539;28;20233;-71
2023/01/18 00:08:56;;;;;;;9.63;7.03;;;1.10;99.90;;;-141.84;69.20;19045.69;5031775;28;20233;-71
2023/01/18 00:11:24;;;;;;;9.10;6.30;;;1.10;99.90;;;-141.84;68.70;19033.50;5031349;28;20229;-72
2023/01/18 00:13:53;;;;;;;7.77;6.30;;;1.10;99.90;;;-141.84;69.20;19039.59;5031691;28;20209;-71
2023/01/18 00:16:22;;;;;;;7.70;6.30;;;1.10;99.90;;;-141.84;70.60;19011.13;5032264;28;20231;-71
2023/01/18 00:18:52;;;;;;;8.20;6.47;;;1.00;99.90;;;-141.84;70.86;19021.31;5031581;28;20304;-72
2023/01/18 00:21:22;;;;;;;9.20;6.40;;;1.00;99.90;;;-141.84;69.34;19084.28;5031355;28;20263;-70
2023/01/18 00:23:50;;;;;;;9.03;6.40;;;1.10;99.90;;;-141.84;67.98;19057.88;5031303;28;20236;-71
2023/01/18 00:26:19;;;;;;;7.60;6.13;;;1.10;99.90;;;-141.84;68.81;19033.50;5031345;28;20222;-70
2023/01/18 00:28:47;;;;;;;9.13;6.50;;;1.20;99.90;;;-141.84;68.36;19063.97;5031525;28;20212;-71
2023/01/18 00:31:20;;;;;;;8.03;6.13;;;1.30;99.90;;;-141.84;69.29;19076.16;5031804;28;20579;-72
2023/01/18 00:33:50;;;;;;;8.70;6.57;;;1.20;99.90;;;-141.84;69.42;19037.56;5031235;28;20291;-71
2023/01/18 00:36:19;;;;;;;8.43;6.17;;;1.20;99.90;;;-141.84;68.62;19055.84;5030752;28;20225;-73
2023/01/18 00:38:51;;;;;;;8.50;6.13;;;1.40;99.90;;;-141.84;68.89;19053.81;5030452;28;20226;-72
2023/01/18 00:41:20;;;;;;;8.47;6.27;;;1.30;99.90;;;-141.84;69.34;19035.53;5031043;28;20229;-72
2023/01/18 00:43:48;;;;;;;8.47;6.07;;;1.30;99.90;;;-141.84;69.36;19051.78;5029012;28;20202;-71
2023/01/18 00:46:20;;;;;;;9.17;6.47;;;1.40;99.90;;;-141.84;70.14;19025.38;5011941;28;20560;-71
2023/01/18 00:48:49;;;;;;;9.00;6.37;;;1.40;99.90;;;-141.84;70.73;19000.97;5011013;28;20233;-71
2023/01/18 00:51:21;;;;;;;8.47;6.13;;;1.50;99.90;;;-141.84;69.52;19070.06;5010957;28;20230;-72
2023/01/18 00:53:50;;;;;;;11.33;6.70;;;1.40;99.90;;;-141.84;67.75;19088.34;5011077;28;20231;-71
2023/01/18 00:56:21;;;;;;;7.83;6.00;;;1.60;99.90;;;-141.84;67.96;19086.31;5010822;28;20226;-71
2023/01/18 00:58:49;;;;;;;7.20;5.40;;;1.60;99.90;;;-141.84;68.25;19047.72;5010955;28;20639;-72
2023/01/18 01:01:19;;;;;;;7.73;6.37;;;1.60;99.90;;;-141.84;68.64;19045.69;5011600;28;20325;-72
2023/01/18 01:06:45;;;;;;;6.80;5.17;;;1.70;99.90;;;-141.84;66.92;19096.47;5025648;28;20234;-72
2023/01/18 01:09:19;;;;;;;8.00;5.80;;;1.80;99.90;;;-141.84;67.23;19086.31;5031669;28;20230;-72
2023/01/18 01:28:28;;;;;;;6.43;5.13;;;1.60;99.90;;;-141.84;69.12;19035.53;5030919;28;20661;-72
2023/01/18 01:31:01;;;;;;;5.80;5.00;;;1.60;99.90;;;-141.84;69.04;19047.72;5030407;28;20234;-72
2023/01/18 01:33:32;;;;;;;7.03;5.40;;;1.60;99.90;;;-141.84;68.49;19059.91;5030401;28;20719;-70
2023/01/18 01:36:04;;;;;;;6.70;5.07;;;1.60;99.90;;;-141.84;69.40;19039.59;5030232;28;20327;-71
2023/01/18 01:38:32;;;;;;;6.37;4.90;;;1.50;99.90;;;-141.84;69.60;18986.75;5030593;28;20256;-72
2023/01/18 01:41:03;;;;;;;5.97;4.90;;;1.60;99.90;;;-141.84;68.78;19013.16;5030793;28;20630;-73
2023/01/18 01:43:42;;;;;;;5.17;4.47;;;1.60;99.90;;;-141.84;68.99;19055.84;5032625;28;20189;-73
2023/01/18 01:46:35;;;;;;;6.60;4.73;;;1.70;99.90;;;-141.84;68.78;19066.00;5051953;28;20213;-71
2023/01/18 01:49:12;;;;;;;5.97;4.43;;;1.60;99.90;;;-141.84;68.45;19063.97;5048369;28;20232;-73
2023/01/18 01:51:45;;;;;;;6.43;4.50;;;1.60;99.90;;;-141.84;68.89;19019.28;5050340;28;20630;-72
2023/01/18 01:54:21;;;;;;;5.73;4.63;;;1.50;99.90;;;-141.84;68.30;19049.75;5050745;28;20231;-74
2023/01/18 01:56:55;;;;;;;6.97;4.67;;;1.60;99.90;;;-141.84;67.89;19051.78;5050806;28;20228;-70
2023/01/18 01:59:24;;;;;;;6.53;4.87;;;1.60;99.90;;;-141.84;68.50;19037.56;5050548;28;20301;-70
2023/01/18 02:01:53;;;;;;;6.20;4.63;;;1.60;99.90;;;-141.84;68.20;19053.81;5051058;28;20232;-74
2023/01/18 02:04:22;;;;;;;5.17;4.60;;;1.70;99.90;;;-141.84;67.10;19043.66;5050336;28;20226;-73
2023/01/18 02:06:51;;;;;;;7.03;4.50;;;1.70;99.90;;;-141.84;67.05;19053.81;5032876;28;20238;-72
2023/01/18 02:09:22;;;;;;;7.33;4.13;;;1.80;99.90;;;-141.84;67.56;19057.88;5031052;28;20252;-73
2023/01/18 02:11:52;;;;;;;5.63;4.10;;;1.70;99.90;;;-141.84;67.05;19080.22;5030984;28;20313;-73
2023/01/18 02:14:25;;;;;;;5.23;3.90;;;1.80;99.90;;;-141.84;65.79;19098.50;5030964;28;20232;-74
2023/01/18 02:17:15;;;;;;;5.00;3.67;;;1.90;99.90;;;-141.84;65.86;19082.25;5030990;28;20202;-74
2023/01/18 02:20:33;;;;;;;5.10;3.90;;;1.90;99.90;;;-141.84;65.70;19084.28;5030467;28;20193;-72
2023/01/18 02:23:33;;;;;;;5.13;3.60;;;2.00;99.90;;;-141.84;64.40;19122.91;5031037;28;20591;-71
2023/01/18 02:26:53;;;;;;;5.03;3.93;;;2.10;99.90;;;-141.84;63.73;19110.72;5031164;28;20237;-74
2023/01/18 02:29:40;;;;;;;6.13;3.30;;;2.20;99.90;;;-141.84;64.06;19088.34;5030817;28;20232;-73
2023/01/18 02:32:25;;;;;;;4.77;3.77;;;2.20;99.90;;;-141.84;64.63;19078.19;5031156;28;20596;-73
2023/01/18 02:35:06;;;;;;;4.77;3.57;;;2.20;99.90;;;-141.84;64.83;19110.72;5030903;28;20267;-74
2023/01/18 02:37:48;;;;;;;5.40;3.70;;;2.20;99.90;;;-141.84;63.64;19074.13;5019767;28;20682;-71
2023/01/18 02:40:28;;;;;;;4.90;3.47;;;2.20;99.90;;;-141.84;64.19;19082.25;5011623;28;20698;-71
2023/01/18 02:48:41;;;;;;;4.93;3.33;;;2.20;99.90;;;-141.84;66.09;19078.19;5038278;28;20222;-72
2023/01/18 02:51:10;;;;;;;4.17;3.30;;;2.10;99.90;;;-141.84;66.82;19011.13;5050499;28;20229;-71
2023/01/18 02:53:41;;;;;;;4.67;4.00;;;1.90;99.90;;;-141.84;66.87;19066.00;5052035;28;20605;-71
2023/01/18 02:56:15;;;;;;;3.70;3.40;;;1.90;99.90;;;-141.84;66.09;19088.34;5050812;28;20244;-72
2023/01/18 02:58:48;;;;;;;5.67;3.57;;;2.00;99.90;;;-141.84;64.45;19112.75;5052419;28;20185;-71
2023/01/18 03:01:27;;;;;;;4.30;3.47;;;2.10;99.90;;;-141.84;65.31;19120.88;5052361;28;20186;-71
2023/01/18 03:04:00;;;;;;;3.53;3.10;;;2.10;99.90;;;-141.84;65.27;19116.81;5054553;28;20329;-73
2023/01/18 03:06:30;;;;;;;5.37;3.70;;;2.10;99.90;;;-141.84;64.55;19108.69;5039962;28;20233;-71
2023/01/18 03:09:00;;;;;;;5.30;3.67;;;2.20;99.90;;;-141.84;64.46;19118.84;5033991;28;20230;-72
2023/01/18 03:11:43;;;;;;;4.97;3.17;;;2.50;99.90;;;-141.84;65.02;19074.13;5034543;28;20221;-71
2023/01/18 03:14:27;;;;;;;3.57;3.27;;;2.30;99.90;;;-141.84;64.97;19094.44;5034336;28;20225;-70
2023/01/18 03:17:06;;;;;;;4.73;3.60;;;2.30;99.90;;;-141.84;65.15;19108.69;5034344;28;20208;-72
2023/01/18 03:25:28;;;;;;;4.43;3.60;;;2.30;99.90;;;-141.84;65.30;19110.72;5034434;28;20206;-71
2023/01/18 03:33:48;;;;;;;4.13;3.20;;;2.20;99.90;;;-141.84;66.93;19074.13;5052742;28;20231;-71
2023/01/18 03:36:26;;;;;;;3.90;3.23;;;2.10;99.90;;;-141.84;66.51;19096.47;5052607;28;20241;-72
2023/01/18 03:39:01;;;;;;;4.80;3.40;;;2.10;99.90;;;-141.84;66.04;19098.50;5052425;28;20236;-71
2023/01/18 03:41:35;;;;;;;5.27;3.70;;;2.20;99.90;;;-141.84;65.77;19112.75;5052205;28;20231;-71
2023/01/18 03:44:11;;;;;;;7.33;3.50;;;2.30;99.90;;;-141.84;65.73;19094.44;5052317;28;20692;-71
2023/01/18 03:46:42;;;;;;;5.00;2.87;;;2.30;99.90;;;-141.84;65.95;19098.50;5052953;28;20185;-72
2023/01/18 03:49:13;;;;;;;4.00;3.40;;;2.20;99.90;;;-141.84;65.49;19106.66;5070631;28;20208;-72
2023/01/18 03:52:03;;;;;;;3.87;2.80;;;2.30;99.90;;;-141.84;65.49;19088.34;5072327;28;20235;-72
2023/01/18 03:54:42;;;;;;;4.03;2.97;;;2.30;99.90;;;-141.84;65.53;19078.19;5072222;28;20240;-74
2023/01/18 03:57:19;;;;;;;6.50;2.87;;;2.30;99.90;;;-141.84;65.98;19114.78;5071847;28;20235;-71
2023/01/18 03:59:48;;;;;;;3.73;3.07;;;2.20;99.90;;;-141.84;65.37;19104.59;5071765;28;20228;-72
2023/01/18 04:02:18;;;;;;;4.17;3.33;;;2.30;99.90;;;-141.84;65.65;19096.47;5071339;28;20247;-70
2023/01/18 04:04:47;;;;;;;4.90;3.13;;;2.30;99.90;;;-141.84;65.31;19110.72;5071960;28;20208;-72
2023/01/18 04:07:16;;;;;;;3.47;3.17;;;2.40;99.90;;;-141.84;65.58;19078.19;5031951;28;20703;-72
2023/01/18 04:09:44;;;;;;;3.80;3.40;;;2.40;99.90;;;-141.84;65.52;19094.44;5031656;28;20240;-70
2023/01/18 04:12:12;;;;;;;3.80;3.10;;;2.40;99.90;;;-141.84;65.95;19098.50;5051441;28;20225;-71
2023/01/18 04:14:40;;;;;;;5.10;3.60;;;2.40;99.90;;;-141.84;66.23;19086.31;5051629;28;20594;-72
2023/01/18 04:17:08;;;;;;;4.00;3.30;;;2.30;99.90;;;-141.84;66.63;19088.34;5051497;28;20226;-71
2023/01/18 04:19:36;;;;;;;3.97;3.57;;;2.20;99.90;;;-141.84;67.24;19078.19;5052150;28;20213;-71
2023/01/18 04:22:06;;;;;;;4.37;3.20;;;2.20;99.90;;;-141.84;67.51;19074.13;5051127;28;20229;-70
2023/01/18 04:24:36;;;;;;;4.20;3.53;;;2.20;99.90;;;-141.84;67.12;19090.38;5051443;28;20260;-70
2023/01/18 04:27:04;;;;;;;4.23;2.83;;;2.20;99.90;;;-141.84;67.00;19070.06;5051206;28;20229;-72
2023/01/18 04:29:33;;;;;;;3.00;2.70;;;2.30;99.90;;;-141.84;67.66;19102.56;5050977;28;20747;-71
2023/01/18 04:32:01;;;;;;;4.73;3.00;;;2.20;99.90;;;-141.84;68.00;19051.78;5051350;28;20233;-71
2023/01/18 04:34:29;;;;;;;3.80;2.77;;;2.10;99.90;;;-141.84;67.69;19086.31;5051468;28;20670;-70
2023/01/18 04:36:58;;;;;;;3.57;3.10;;;2.20;99.90;;;-141.84;68.18;19084.28;5050945;28;20237;-71
2023/01/18 04:39:27;;;;;;;4.17;2.93;;;2.20;99.90;;;-141.84;67.65;19143.22;5051056;28;20221;-71
2023/01/18 04:41:55;;;;;;;5.93;2.90;;;2.20;99.90;;;-141.84;67.65;19074.13;5051080;28;20232;-70
2023/01/18 04:44:24;;;;;;;4.37;2.80;;;2.20;99.90;;;-141.84;68.12;19047.72;5051217;28;20233;-72
2023/01/18 04:46:52;;;;;;;3.63;2.90;;;2.20;99.90;;;-141.84;69.12;19055.84;5051035;28;20221;-70
2023/01/18 04:49:20;;;;;;;3.57;3.00;;;2.20;99.90;;;-141.84;69.63;19057.88;5070636;28;20196;-72
2023/01/18 04:51:49;;;;;;;3.33;2.70;;;2.10;99.90;;;-141.84;69.05;19094.44;5070926;28;20232;-71
2023/01/18 04:54:18;;;;;;;4.70;2.67;;;2.20;99.90;;;-141.84;68.99;19074.13;5070924;28;20228;-71
2023/01/18 04:56:47;;;;;;;4.03;3.57;;;2.20;99.90;;;-141.84;69.44;19086.31;5071118;28;20235;-71
2023/01/18 04:59:16;;;;;;;4.67;3.10;;;2.20;99.90;;;-141.84;69.69;19076.16;5070940;28;20607;-71
2023/01/18 05:01:44;;;;;;;4.30;3.07;;;2.20;99.90;;;-141.84;69.51;19126.97;5070663;28;20680;-71
2023/01/18 05:04:13;;;;;;;3.00;2.53;;;2.20;99.90;;;-141.84;69.87;19082.25;5070964;28;20549;-71
2023/01/18 05:06:41;;;;;;;4.07;2.50;;;2.20;99.90;;;-141.84;69.54;19078.19;5054725;28;20231;-71
2023/01/18 05:09:12;;;;;;;2.70;2.50;;;2.10;99.90;;;-141.84;69.57;19106.66;5050651;28;20626;-72
2023/01/18 05:11:40;;;;;;;3.17;2.73;;;2.20;99.90;;;-141.84;69.72;19102.56;5032433;28;20248;-71
2023/01/18 05:14:09;;;;;;;5.07;3.07;;;2.20;99.90;;;-141.84;69.79;19086.31;5030634;28;20222;-71
2023/01/18 05:16:38;;;;;;;4.37;2.80;;;2.20;99.90;;;-141.84;70.41;19100.53;5031289;28;20202;-72
2023/01/18 05:19:06;;;;;;;3.50;2.83;;;2.20;99.90;;;-141.84;70.46;19088.34;5030876;28;20218;-72
2023/01/18 05:21:34;;;;;;;4.27;2.60;;;2.20;99.90;;;-141.84;71.08;19045.69;5030392;28;20222;-71
2023/01/18 05:24:02;;;;;;;4.50;2.60;;;2.10;99.90;;;-141.84;71.57;19074.13;5030470;28;20226;-72
2023/01/18 05:26:30;;;;;;;3.60;2.80;;;2.00;99.90;;;-141.84;71.69;19070.06;5032537;28;20728;-72
2023/01/18 05:28:59;;;;;;;4.00;2.50;;;2.00;99.90;;;-141.84;72.64;19041.63;5036341;28;20207;-71
2023/01/18 05:31:28;;;;;;;3.10;2.60;;;1.90;99.90;;;-141.84;72.16;19029.44;5051049;28;20198;-71
2023/01/18 05:33:57;;;;;;;3.37;3.07;;;1.90;99.90;;;-141.84;72.46;19051.78;5050412;28;20290;-73
2023/01/18 05:36:25;;;;;;;3.07;2.53;;;1.90;99.90;;;-141.84;72.66;19043.66;5036605;28;20228;-71
2023/01/18 05:38:53;;;;;;;3.90;2.73;;;1.90;99.90;;;-141.84;72.58;19035.53;5020394;28;20229;-71
2023/01/18 05:41:21;;;;;;;3.07;2.50;;;1.90;99.90;;;-141.84;72.75;19051.78;5010567;28;20918;-72
2023/01/18 05:43:50;;;;;;;4.20;2.70;;;1.90;99.90;;;-141.84;72.76;19078.19;5010650;28;20234;-72
2023/01/18 05:46:18;;;;;;;5.63;4.13;;;1.90;99.90;;;-141.84;73.43;19017.25;5011295;28;20616;-71
2023/01/18 05:48:47;;;;;;;4.70;2.77;;;1.90;99.90;;;-141.84;73.59;19057.88;5025338;28;20222;-73
2023/01/18 05:51:15;;;;;;;3.90;2.80;;;1.80;99.90;;;-141.84;73.62;19027.41;5030504;28;20235;-71
2023/01/18 05:53:43;;;;;;;5.50;3.57;;;1.90;99.90;;;-141.84;73.65;19037.56;5030008;28;20225;-71
2023/01/18 05:56:12;;;;;;;4.37;2.57;;;1.90;99.90;;;-141.84;73.68;19007.06;5030283;28;20249;-71
2023/01/18 05:58:40;;;;;;;3.60;2.70;;;1.90;99.90;;;-141.84;74.19;19039.59;5030782;28;20202;-72
2023/01/18 06:01:08;;;;;;;3.33;2.73;;;1.80;99.90;;;-141.84;73.43;19068.03;5030759;28;20221;-71
2023/01/18 06:03:36;;;;;;;4.00;2.97;;;1.90;99.90;;;-141.84;73.46;19011.13;5019819;28;20242;-71
2023/01/18 06:06:07;;;;;;;3.90;3.07;;;1.90;99.90;;;-141.84;73.89;19047.72;5021199;28;20222;-71
2023/01/18 06:08:35;;;;;;;5.00;3.23;;;1.80;99.90;;;-141.84;74.83;19009.09;5030494;28;20233;-73
2023/01/18 06:11:05;;;;;;;3.93;3.23;;;1.70;99.90;;;-141.84;75.03;19041.63;5030271;28;20233;-72
2023/01/18 06:13:33;;;;;;;3.77;3.37;;;1.60;99.90;;;-141.84;73.62;19015.19;5031106;28;20209;-71
2023/01/18 06:16:03;;;;;;;4.03;3.20;;;1.80;99.90;;;-141.84;73.29;19005.03;5031209;28;20226;-71
2023/01/18 06:18:33;;;;;;;5.10;2.97;;;1.90;99.90;;;-141.84;74.11;19011.13;5030864;28;20254;-73
2023/01/18 06:21:03;;;;;;;3.87;3.03;;;1.80;99.90;;;-141.84;74.53;19049.75;5028585;28;20722;-71
2023/01/18 06:23:34;;;;;;;3.47;3.17;;;1.70;99.90;;;-141.84;73.63;19055.84;5010408;28;20248;-71
2023/01/18 06:26:02;;;;;;;4.30;3.53;;;1.80;99.90;;;-141.84;72.96;19057.88;5010746;28;20244;-71
2023/01/18 06:28:30;;;;;;;3.97;3.20;;;1.90;99.90;;;-141.84;72.78;19063.97;5012896;28;20199;-71
2023/01/18 06:31:02;;;;;;;4.50;3.37;;;1.90;99.90;;;-141.84;72.90;19011.13;5030253;28;20245;-72
2023/01/18 06:33:30;;;;;;;4.43;3.30;;;1.90;99.90;;;-141.84;73.04;19047.72;5029897;28;20693;-72
2023/01/18 06:36:00;;;;;;;4.93;3.87;;;1.90;99.90;;;-141.84;72.96;19037.56;5020267;28;20524;-69
2023/01/18 06:38:28;;;;;;;5.77;3.70;;;1.90;99.90;;;-141.84;73.34;19021.31;5012522;28;20226;-70
2023/01/18 06:40:58;;;;;;;4.27;3.67;;;1.80;99.90;;;-141.84;73.71;19021.31;5014121;28;20222;-72
2023/01/18 06:43:26;;;;;;;4.13;3.47;;;1.90;99.90;;;-141.84;72.70;19066.00;5014201;28;20645;-72
2023/01/18 06:45:55;;;;;;;4.47;3.70;;;2.00;99.90;;;-141.84;72.13;19063.97;5014113;28;20231;-72
2023/01/18 06:48:25;;;;;;;4.77;3.17;;;2.00;99.90;;;-141.84;71.59;19080.22;5025495;28;20226;-70
2023/01/18 06:50:57;;;;;;;4.13;3.50;;;2.10;99.90;;;-141.84;71.94;19074.13;5033254;28;20312;-71
2023/01/18 06:53:25;;;;;;;4.63;3.63;;;2.10;99.90;;;-141.84;70.91;19076.16;5033446;28;20221;-71
2023/01/18 06:55:57;;;;;;;3.90;3.33;;;2.20;99.90;;;-141.84;71.55;19080.22;5033064;28;20230;-72
2023/01/18 06:58:28;;;;;;;3.90;3.33;;;2.20;99.90;;;-141.84;71.47;19029.44;5033675;28;20630;-72
2023/01/18 07:00:59;;;;;;;5.10;3.37;;;2.20;99.90;;;-141.84;71.99;19066.00;5013701;28;20227;-72
2023/01/18 07:03:30;;;;;;;4.87;3.30;;;2.20;99.90;;;-141.84;71.47;19078.19;5013350;28;20240;-71
2023/01/18 07:06:00;;;;;;;5.90;3.17;;;2.20;99.90;;;-141.84;71.82;19078.19;5022908;28;20230;-71
2023/01/18 07:08:30;;;;;;;5.33;3.03;;;2.10;99.90;;;-141.84;70.94;19049.75;5033248;28;20226;-70
2023/01/18 07:11:05;;;;;;;5.57;3.43;;;2.20;99.90;;;-141.84;71.99;19037.56;5033231;28;20251;-71
2023/01/18 07:13:33;;;;;;;4.20;3.03;;;2.10;99.90;;;-141.84;70.66;19082.25;5033636;28;20186;-71
2023/01/18 07:16:02;;;;;;;6.17;3.13;;;2.20;99.90;;;-141.84;71.10;19055.84;5032992;28;20652;-71
2023/01/18 07:18:30;;;;;;;5.10;3.73;;;2.20;99.90;;;-141.84;71.42;19049.75;5023298;28;20231;-70
2023/01/18 07:21:01;;;;;;;8.60;4.50;;;2.20;99.90;;;-141.84;72.08;19041.63;5012698;28;20227;-70
2023/01/18 07:23:30;;;;;;;5.50;3.80;;;2.10;99.90;;;-141.84;71.18;19055.84;5013198;28;20241;-70
2023/01/18 07:26:02;;;;;;;6.10;3.50;;;2.20;99.90;;;-141.84;71.04;19063.97;5013073;28;20576;-70
2023/01/18 07:28:31;;;;;;;4.53;3.20;;;2.10;99.90;;;-141.84;70.46;19090.38;5015830;28;20191;-70
2023/01/18 07:31:01;;;;;;;4.53;3.23;;;2.20;99.90;;;-141.84;71.89;19070.06;5032690;28;20226;-70
2023/01/18 07:33:30;;;;;;;3.77;3.30;;;2.20;99.90;;;-141.84;72.18;19068.03;5032869;28;20232;-70
2023/01/18 07:36:00;;;;;;;5.07;3.53;;;2.10;99.90;;;-141.84;72.39;19086.31;5022633;28;20572;-68
2023/01/18 07:38:29;;;;;;;4.33;3.27;;;2.10;99.90;;;-141.84;71.39;19057.88;5017354;28;20709;-68
2023/01/18 07:41:02;;;;;;;5.33;3.30;;;2.20;99.90;;;-141.84;71.88;19072.09;5031992;28;20202;-69
2023/01/18 07:43:31;;;;;;;4.10;3.30;;;2.20;99.90;;;-141.84;71.73;19063.97;5032833;28;20194;-71
2023/01/18 07:46:02;;;;;;;4.47;3.20;;;2.20;99.90;;;-141.84;72.84;19053.81;5031980;28;20230;-70
2023/01/18 07:48:31;;;;;;;3.60;3.30;;;2.10;99.90;;;-141.84;73.28;19053.81;5031610;28;20268;-70
2023/01/18 07:51:02;;;;;;;4.47;3.43;;;2.00;99.90;;;-141.84;74.17;19053.81;5031844;28;20237;-71
2023/01/18 07:53:32;;;;;;;5.47;3.43;;;1.90;99.90;;;-141.84;74.89;19005.03;5032011;28;20253;-70
2023/01/18 07:56:05;;;;;;;4.90;3.60;;;1.90;99.90;;;-141.84;75.52;19053.81;5031668;28;20242;-70
2023/01/18 07:58:35;;;;;;;4.10;3.47;;;1.80;99.90;;;-141.84;75.94;19017.25;5032549;28;20201;-70
2023/01/18 08:01:05;;;;;;;3.60;3.30;;;1.80;99.90;;;-141.84;75.83;19019.28;5031739;28;20300;-73
2023/01/18 08:03:35;;;;;;;5.20;3.50;;;1.80;99.90;;;-141.84;76.69;19029.44;5031910;28;20318;-72
2023/01/18 08:06:05;;;;;;;5.30;3.90;;;1.80;99.90;;;-141.84;76.53;19017.25;5031673;28;20228;-70
2023/01/18 08:08:35;;;;;;;6.30;4.00;;;1.90;99.90;;;-141.84;76.82;19003.00;5031483;28;20705;-70
2023/01/18 08:11:07;;;;;;;5.13;4.10;;;1.80;99.90;;;-141.84;77.46;18988.78;5031290;28;20694;-71
2023/01/18 08:13:35;;;;;;;5.57;4.10;;;1.80;99.90;;;-141.84;77.48;18998.94;5029127;28;20318;-70
2023/01/18 08:16:07;;;;;;;9.37;4.37;;;1.70;99.90;;;-141.84;78.04;19033.50;5011765;28;20238;-68
2023/01/18 08:18:35;;;;;;;5.17;4.43;;;1.70;99.90;;;-141.84;78.76;19003.00;5011762;28;20740;-69
2023/01/18 08:21:04;;;;;;;8.97;5.07;;;1.60;99.90;;;-141.84;78.34;19003.00;5011743;28;20238;-70
2023/01/18 08:23:32;;;;;;;5.33;4.83;;;1.70;99.90;;;-141.84;78.63;19000.97;5011644;28;20229;-70
2023/01/18 08:26:02;;;;;;;6.47;5.10;;;1.70;99.90;;;-141.84;78.94;19007.06;5011910;28;20260;-69
2023/01/18 08:28:32;;;;;;;8.20;5.20;;;1.70;99.90;;;-141.84;79.56;18998.94;5014258;28;20225;-71
2023/01/18 08:31:10;;;;;;;5.87;5.23;;;1.60;99.90;;;-141.84;80.44;18946.13;5031280;28;20238;-69
2023/01/18 08:33:41;;;;;;;6.00;5.40;;;1.60;99.90;;;-141.84;80.66;18950.19;5031307;28;20234;-69
2023/01/18 08:36:10;;;;;;;6.47;5.67;;;1.60;99.90;;;-141.84;80.90;18968.47;5021789;28;20227;-66
2023/01/18 08:38:39;;;;;;;9.50;5.40;;;1.50;99.90;;;-141.84;81.79;18970.50;5013504;28;20225;-69
2023/01/18 08:41:08;;;;;;;8.67;5.73;;;1.50;99.90;;;-141.84;81.91;18998.94;5011773;28;20230;-67
2023/01/18 08:43:38;;;;;;;7.50;5.97;;;1.40;99.90;;;-141.84;81.65;18960.34;5012269;28;20205;-68
2023/01/18 08:46:06;;;;;;;8.57;5.97;;;1.40;99.90;;;-141.84;81.53;18970.50;5032754;28;20236;-71
2023/01/18 08:48:35;;;;;;;9.43;6.30;;;1.40;99.90;;;-141.84;82.11;18956.28;5033173;28;20230;-71
2023/01/18 08:51:04;;;;;;;8.70;6.10;;;1.40;99.90;;;-141.84;81.72;18956.28;5031041;28;20229;-67
2023/01/18 08:53:33;;;;;;;8.53;5.77;;;1.40;99.90;;;-141.84;81.78;18972.53;5031179;28;20658;-67
2023/01/18 08:56:05;;;;;;;7.93;5.83;;;1.40;99.90;;;-141.84;81.68;18972.53;5030645;28;20249;-67
2023/01/18 08:58:34;;;;;;;10.63;6.00;;;1.40;99.90;;;-141.84;81.82;18970.50;5031918;28;20187;-69
2023/01/18 09:01:06;;;;;;;6.87;5.90;;;1.50;99.90;;;-141.84;82.03;18986.75;5030365;28;20225;-68
2023/01/18 09:03:35;;;;;;;7.77;6.03;;;1.40;99.90;;;-141.84;82.17;18946.13;5031355;28;20803;-69
2023/01/18 09:06:08;;;;;;;8.27;5.73;;;1.40;99.90;;;-141.84;82.81;18942.06;5034511;28;20321;-71
2023/01/18 09:08:40;;;;;;;9.67;6.27;;;1.40;99.90;;;-141.84;82.96;18980.66;5036098;28;20262;-70
2023/01/18 09:11:10;;;;;;;7.47;6.20;;;1.40;99.90;;;-141.84;83.10;18950.19;5034484;28;20225;-71
2023/01/18 09:13:40;;;;;;;6.80;5.60;;;1.40;99.90;;;-141.84;83.29;18962.38;5032916;28;20241;-70
2023/01/18 09:16:27;;;;;;;9.87;6.37;;;1.40;99.90;;;-141.84;82.29;18960.34;5032008;28;20225;-69
2023/01/18 09:18:57;;;;;;;8.97;6.03;;;1.50;99.90;;;-141.84;82.33;18972.53;5031001;28;20233;-69
2023/01/18 09:21:27;;;;;;;7.27;5.73;;;1.50;99.90;;;-141.84;82.40;18982.69;5031751;28;20232;-74
2023/01/18 09:23:55;;;;;;;6.97;5.53;;;1.50;99.90;;;-141.84;81.75;18972.53;5031801;28;20225;-71
2023/01/18 09:26:24;;;;;;;9.43;5.60;;;1.50;99.90;;;-141.84;81.36;18946.13;5031700;28;20229;-72
2023/01/18 09:28:54;;;;;;;7.50;5.60;;;1.50;99.90;;;-141.84;81.75;18925.81;5019333;28;20248;-71
2023/01/18 09:31:26;;;;;;;9.47;5.57;;;1.50;99.90;;;-141.84;82.07;18960.34;5053078;28;20241;-65
2023/01/18 09:33:57;;;;;;;7.77;5.70;;;1.60;99.90;;;-141.84;82.22;18958.31;5049997;28;20221;-61
2023/01/18 09:36:50;;;;;;;8.07;5.80;;;1.50;99.90;;;-141.84;82.05;18986.75;5033934;28;20226;-60
2023/01/18 09:39:19;;;;;;;11.00;5.67;;;1.50;99.90;;;-141.84;82.46;18952.22;5029787;28;20256;-60
2023/01/18 09:41:54;;;;;;;6.97;5.37;;;1.50;99.90;;;-141.84;82.26;18940.03;5029880;28;20318;-62
2023/01/18 09:44:28;;;;;;;8.30;5.23;;;1.60;99.90;;;-141.84;81.87;18986.75;5030054;28;20291;-59
2023/01/18 09:47:03;;;;;;;6.27;5.00;;;1.70;99.90;;;-141.84;81.54;18988.78;5030073;28;20212;-62
2023/01/18 09:49:44;;;;;;;7.10;4.87;;;1.70;99.90;;;-141.84;80.74;18942.06;5048330;28;20670;-60
2023/01/18 09:52:31;;;;;;;7.90;5.00;;;1.70;99.90;;;-141.84;80.97;18974.56;5049750;28;20210;-61
2023/01/18 09:55:15;;;;;;;6.57;4.90;;;1.70;99.90;;;-141.84;80.49;18996.91;5049508;28;20261;-61
2023/01/18 09:58:00;;;;;;;6.13;4.70;;;1.70;99.90;;;-141.84;80.55;18952.22;5049656;28;20237;-61
2023/01/18 10:00:33;;;;;;;8.17;5.80;;;1.80;99.90;;;-141.84;80.02;18988.78;5049796;28;20237;-61
2023/01/18 10:03:13;;;;;;;6.80;4.50;;;1.90;99.90;;;-141.84;80.04;18974.56;5049670;28;20259;-60
2023/01/18 10:06:07;;;;;;;7.47;4.67;;;1.90;99.90;;;-141.84;79.75;18972.53;5049538;28;20240;-61
2023/01/18 10:08:45;;;;;;;5.77;4.67;;;1.90;99.90;;;-141.84;78.90;18988.78;5029747;28;20225;-60
2023/01/18 10:11:25;;;;;;;6.37;4.80;;;2.00;99.90;;;-141.84;79.20;19005.03;5044427;28;20239;-60
2023/01/18 10:14:04;;;;;;;7.87;5.17;;;2.00;99.90;;;-141.84;77.63;19035.53;5053878;28;20186;-60
2023/01/18 10:16:36;;;;;;;6.97;5.00;;;2.10;99.90;;;-141.84;78.18;18998.94;5054316;28;20190;-59
2023/01/18 10:19:13;;;;;;;7.30;4.50;;;2.20;99.90;;;-141.84;78.11;19007.06;5053593;28;20232;-61
2023/01/18 10:21:55;;;;;;;7.27;5.37;;;2.20;99.90;;;-141.84;78.13;18980.66;5053492;28;20235;-60
2023/01/18 10:24:36;;;;;;;7.07;4.57;;;2.20;99.90;;;-141.84;78.13;18994.88;5053207;28;20312;-60
2023/01/18 10:27:34;;;;;;;8.37;5.10;;;2.20;99.90;;;-141.84;78.22;18990.81;5053354;28;20712;-61
2023/01/18 10:30:20;;;;;;;5.77;4.93;;;2.10;99.90;;;-141.84;78.78;18974.56;5053398;28;20233;-60
2023/01/18 10:32:54;;;;;;;7.63;5.20;;;2.10;99.90;;;-141.84;79.29;19003.00;5053449;28;20286;-60
2023/01/18 10:35:30;;;;;;;8.40;4.80;;;2.10;99.90;;;-141.84;79.31;18988.78;5053262;28;20224;-60
2023/01/18 10:38:07;;;;;;;7.57;5.67;;;2.20;99.90;;;-141.84;78.61;19017.25;5053388;28;20201;-60
2023/01/18 10:40:39;;;;;;;7.27;4.93;;;2.20;99.90;;;-141.84;78.72;18992.84;5043107;28;20205;-61
2023/01/18 10:43:19;;;;;;;7.50;4.87;;;2.30;99.90;;;-141.84;77.67;18988.78;5013472;28;20202;-61
2023/01/18 10:45:47;;;;;;;6.37;4.70;;;2.20;99.90;;;-141.84;77.43;19005.03;5013307;28;20226;-61
2023/01/18 10:48:29;;;;;;;9.30;5.03;;;2.20;99.90;;;-141.84;77.99;18996.91;5017267;28;20701;-60
2023/01/18 10:51:01;;;;;;;6.07;4.53;;;2.20;99.90;;;-141.84;78.76;19000.97;5033226;28;20309;-61
2023/01/18 10:53:34;;;;;;;8.63;5.30;;;2.10;99.90;;;-141.84;79.29;18948.16;5033307;28;20648;-60
2023/01/18 10:56:07;;;;;;;7.33;4.67;;;2.10;99.90;;;-141.84;78.73;19009.09;5033102;28;20313;-60
2023/01/18 10:58:45;;;;;;;7.07;5.10;;;2.20;99.90;;;-141.84;78.61;19017.25;5033457;28;20183;-60
2023/01/18 11:01:18;;;;;;;7.17;4.60;;;2.10;99.90;;;-141.84;78.50;19009.09;5013668;28;20207;-59
2023/01/18 11:03:51;;;;;;;5.87;4.30;;;2.00;99.90;;;-141.84;78.02;18988.78;5030073;28;20226;-61
2023/01/18 11:06:20;;;;;;;6.23;4.67;;;2.00;99.90;;;-141.84;78.15;18970.50;5046261;28;20230;-62
2023/01/18 11:08:50;;;;;;;6.30;4.30;;;1.90;99.90;;;-141.84;79.09;19005.03;5052787;28;20225;-61
2023/01/18 11:14:28;;;;;;;5.63;3.93;;;2.00;99.90;;;-141.84;77.20;19037.56;5052188;28;20229;-59